Time;durP1;ratioP1;P1;durP2;ratioP2;P2;SDS_P1;SDS_P2;PMS_P1;PMS_P2;Temp;Humidity;BMP_temperature;BMP_pressure;BME280_temperature;BME280_humidity;BME280_pressure;Samples;Min_cycle;Max_cycle;Signal;HPM_P1;HPM_P2
2020/12/08 00:01:45;;;;;;;53.67;31.57;;;7.10;84.90;;;;;;4981498;28;20046;-83
2020/12/08 00:04:34;;;;;;;50.80;29.20;;;7.20;85.00;;;;;;4950709;28;20498;-84
2020/12/08 00:07:20;;;;;;;56.43;30.97;;;7.20;85.50;;;;;;4964918;28;20060;-83
2020/12/08 00:10:05;;;;;;;55.90;32.77;;;7.10;84.80;;;;;;4970971;28;20093;-83
2020/12/08 00:12:51;;;;;;;48.70;29.90;;;7.20;84.80;;;;;;4964237;28;20042;-83
2020/12/08 00:15:37;;;;;;;55.07;31.77;;;7.20;84.70;;;;;;4947833;28;20089;-83
2020/12/08 00:18:03;;;;;;;54.20;31.87;;;7.10;84.60;;;;;;4979790;28;20526;-82
2020/12/08 00:20:28;;;;;;;52.20;31.07;;;7.10;84.60;;;;;;4969122;28;20042;-83
2020/12/08 00:22:54;;;;;;;51.47;30.33;;;7.10;84.70;;;;;;4978167;28;20550;-82
2020/12/08 00:25:20;;;;;;;51.87;30.47;;;7.10;84.70;;;;;;4956411;28;20127;-83
2020/12/08 00:27:46;;;;;;;50.57;30.80;;;7.20;85.40;;;;;;4957537;28;20125;-83
2020/12/08 00:30:13;;;;;;;55.17;31.23;;;7.10;84.60;;;;;;4978204;28;20042;-83
2020/12/08 00:32:39;;;;;;;54.60;31.27;;;7.10;84.50;;;;;;4960295;28;21559;-82
2020/12/08 00:35:10;;;;;;;58.03;30.50;;;7.30;84.60;;;;;;4976587;28;20039;-83
2020/12/08 00:37:36;;;;;;;58.87;32.20;;;7.10;84.50;;;;;;4962560;28;20420;-82
2020/12/08 00:40:21;;;;;;;52.77;31.87;;;7.10;84.70;;;;;;4933739;28;20475;-82
2020/12/08 00:42:47;;;;;;;53.83;31.23;;;7.10;85.30;;;;;;4969798;28;20082;-84
2020/12/08 00:45:13;;;;;;;53.87;31.20;;;7.10;84.60;;;;;;4974060;28;20093;-83
2020/12/08 00:47:59;;;;;;;53.17;32.60;;;7.10;85.30;;;;;;4967315;28;20565;-84
2020/12/08 00:50:44;;;;;;;52.30;30.20;;;7.10;84.50;;;;;;4957219;28;20468;-84
2020/12/08 00:53:11;;;;;;;54.20;31.77;;;7.10;84.80;;;;;;5006062;28;20164;-83
2020/12/08 00:55:57;;;;;;;51.00;31.53;;;7.10;85.00;;;;;;4981334;28;20042;-81
2020/12/08 00:58:43;;;;;;;52.10;31.37;;;7.10;85.00;;;;;;4963685;28;20043;-83
2020/12/08 01:01:29;;;;;;;59.20;31.30;;;7.10;85.00;;;;;;4978420;28;20061;-83
2020/12/08 01:03:55;;;;;;;49.77;30.53;;;7.10;85.00;;;;;;4957124;28;20034;-83
2020/12/08 01:06:21;;;;;;;52.30;30.60;;;7.10;85.00;;;;;;4987210;28;20073;-82
2020/12/08 01:09:06;;;;;;;53.63;31.43;;;7.20;85.10;;;;;;4952599;28;20061;-82
2020/12/08 01:11:39;;;;;;;50.37;30.90;;;7.20;85.00;;;;;;4954559;28;20046;-82
2020/12/08 01:14:24;;;;;;;47.73;29.83;;;7.20;85.00;;;;;;4966531;28;20129;-82
2020/12/08 01:17:10;;;;;;;48.40;29.97;;;7.20;85.00;;;;;;4975705;28;20074;-83
2020/12/08 01:19:56;;;;;;;46.30;29.50;;;7.20;85.00;;;;;;4975694;28;20047;-81
2020/12/08 01:22:42;;;;;;;48.10;30.03;;;7.20;84.90;;;;;;4972978;28;20491;-82
2020/12/08 01:25:08;;;;;;;49.00;30.93;;;7.20;84.90;;;;;;4993316;28;20059;-82
2020/12/08 01:27:34;;;;;;;48.27;29.40;;;7.20;84.70;;;;;;4963821;28;20031;-81
2020/12/08 01:29:59;;;;;;;50.50;32.30;;;7.20;84.50;;;;;;4961090;28;20550;-81
2020/12/08 01:32:45;;;;;;;46.53;29.50;;;7.20;84.60;;;;;;4975713;28;20053;-82
2020/12/08 01:35:11;;;;;;;52.93;30.50;;;7.20;84.70;;;;;;5001413;28;20447;-83
2020/12/08 01:37:38;;;;;;;49.50;29.97;;;7.20;84.60;;;;;;4961504;28;20046;-82
2020/12/08 01:40:04;;;;;;;50.43;30.30;;;7.20;84.60;;;;;;4996845;28;20038;-82
2020/12/08 01:42:30;;;;;;;50.03;30.70;;;7.20;84.60;;;;;;4970593;28;20042;-82
2020/12/08 01:45:16;;;;;;;51.37;30.90;;;7.20;84.60;;;;;;4972641;28;20039;-82
2020/12/08 01:47:42;;;;;;;47.80;30.73;;;7.20;84.60;;;;;;4987801;28;20040;-82
2020/12/08 01:50:07;;;;;;;47.90;30.93;;;7.20;84.50;;;;;;4953886;28;20038;-83
2020/12/08 01:52:53;;;;;;;45.83;29.40;;;7.10;84.40;;;;;;4960510;28;20047;-82
2020/12/08 01:55:19;;;;;;;46.53;28.83;;;7.30;84.70;;;;;;4988009;28;20093;-82
2020/12/08 01:57:46;;;;;;;49.23;29.93;;;7.10;84.60;;;;;;4969263;28;20046;-82
2020/12/08 02:00:11;;;;;;;46.43;30.30;;;7.10;84.40;;;;;;5000830;28;20045;-81
2020/12/08 02:02:37;;;;;;;52.83;29.43;;;7.10;84.50;;;;;;4964634;28;20039;-82
2020/12/08 02:05:05;;;;;;;45.67;29.17;;;7.10;84.50;;;;;;4963303;28;20045;-82
2020/12/08 02:07:31;;;;;;;48.23;29.07;;;7.10;84.50;;;;;;4977294;28;20034;-82
2020/12/08 02:10:17;;;;;;;45.50;27.70;;;7.10;84.50;;;;;;4962960;28;20124;-82
2020/12/08 02:13:07;;;;;;;44.77;28.40;;;7.10;84.50;;;;;;4973709;28;20517;-83
2020/12/08 02:15:34;;;;;;;46.07;30.03;;;7.10;84.40;;;;;;4969924;28;20038;-82
2020/12/08 02:18:20;;;;;;;46.97;30.27;;;7.10;84.30;;;;;;4947007;28;20054;-81
2020/12/08 02:21:06;;;;;;;44.57;28.60;;;7.10;84.40;;;;;;4957049;28;20042;-81
2020/12/08 02:23:32;;;;;;;47.87;30.30;;;7.10;84.50;;;;;;4968009;28;20040;-83
2020/12/08 02:26:03;;;;;;;49.03;29.63;;;7.10;84.30;;;;;;4977020;28;20046;-81
2020/12/08 02:28:29;;;;;;;44.97;29.97;;;7.00;84.40;;;;;;5003189;28;20057;-82
2020/12/08 02:30:55;;;;;;;49.27;30.47;;;7.00;84.40;;;;;;4984782;28;20037;-80
2020/12/08 02:33:25;;;;;;;43.10;27.27;;;7.10;84.60;;;;;;4956028;28;20045;-82
2020/12/08 02:35:51;;;;;;;47.73;30.13;;;7.10;84.60;;;;;;4983109;28;20035;-80
2020/12/08 02:38:37;;;;;;;50.23;31.93;;;7.10;84.60;;;;;;4960860;28;20308;-80
2020/12/08 02:41:04;;;;;;;49.20;31.13;;;7.10;84.50;;;;;;4982413;28;20037;-82
2020/12/08 02:43:30;;;;;;;47.17;29.97;;;7.10;84.70;;;;;;4994821;28;20082;-82
2020/12/08 02:45:56;;;;;;;45.37;30.53;;;7.10;84.70;;;;;;4986002;28;20044;-82
2020/12/08 02:48:25;;;;;;;48.70;30.30;;;7.10;84.70;;;;;;4988063;28;20030;-82
2020/12/08 02:51:15;;;;;;;45.20;29.97;;;7.10;84.60;;;;;;4977036;28;20057;-82
2020/12/08 02:54:01;;;;;;;45.57;31.07;;;7.10;84.50;;;;;;4994246;28;20411;-81
2020/12/08 02:56:47;;;;;;;43.60;29.77;;;7.10;84.60;;;;;;4995703;28;20082;-83
2020/12/08 02:59:12;;;;;;;47.40;29.70;;;7.10;84.70;;;;;;5012409;28;20170;-82
2020/12/08 03:01:38;;;;;;;48.70;30.40;;;7.10;84.80;;;;;;4997942;28;20121;-82
2020/12/08 03:04:04;;;;;;;47.10;30.60;;;7.10;84.90;;;;;;5001767;28;20041;-83
2020/12/08 03:06:30;;;;;;;49.20;31.40;;;7.10;85.40;;;;;;4983697;28;20069;-81
2020/12/08 03:08:55;;;;;;;46.37;30.47;;;7.10;84.70;;;;;;4988381;28;20093;-83
2020/12/08 03:11:29;;;;;;;98.97;34.90;;;7.10;84.70;;;;;;4999525;28;20079;-83
2020/12/08 03:13:55;;;;;;;49.60;32.87;;;7.10;84.60;;;;;;5000957;28;20037;-83
2020/12/08 03:16:21;;;;;;;47.87;31.00;;;7.10;84.60;;;;;;5004729;28;20048;-82
2020/12/08 03:18:47;;;;;;;51.37;31.90;;;7.10;84.70;;;;;;4998133;28;20375;-82
2020/12/08 03:21:12;;;;;;;72.70;32.17;;;7.10;84.80;;;;;;4996518;28;20040;-82
2020/12/08 03:23:39;;;;;;;59.40;29.73;;;7.20;84.80;;;;;;4984162;28;20118;-81
2020/12/08 03:26:06;;;;;;;67.93;30.67;;;7.20;84.70;;;;;;5002556;28;20096;-82
2020/12/08 03:28:32;;;;;;;58.37;30.63;;;7.20;84.50;;;;;;5003212;28;20034;-82
2020/12/08 03:30:57;;;;;;;49.87;29.20;;;7.20;84.30;;;;;;4966419;28;20038;-82
2020/12/08 03:33:43;;;;;;;46.60;31.57;;;7.10;84.30;;;;;;4992609;28;20041;-82
2020/12/08 03:36:29;;;;;;;48.63;30.07;;;7.10;84.40;;;;;;5014150;28;20046;-82
2020/12/08 03:38:54;;;;;;;44.33;29.57;;;7.10;84.60;;;;;;4996631;28;20044;-83
2020/12/08 03:41:21;;;;;;;46.63;29.97;;;7.10;84.50;;;;;;4970193;28;20052;-83
2020/12/08 03:43:51;;;;;;;48.03;31.57;;;7.10;84.60;;;;;;4997748;28;20061;-84
2020/12/08 03:46:36;;;;;;;45.27;30.57;;;7.10;84.50;;;;;;4973274;28;20042;-84
2020/12/08 03:49:02;;;;;;;48.13;30.43;;;7.10;84.70;;;;;;4984006;28;20068;-84
2020/12/08 03:51:28;;;;;;;44.73;30.33;;;7.10;84.60;;;;;;4971110;28;20482;-84
2020/12/08 03:54:14;;;;;;;46.73;30.63;;;7.10;84.60;;;;;;4955898;28;20054;-84
2020/12/08 03:56:59;;;;;;;47.43;30.83;;;7.10;84.60;;;;;;4985305;28;20046;-82
2020/12/08 03:59:25;;;;;;;45.90;30.20;;;7.30;84.70;;;;;;4999304;28;20041;-82
2020/12/08 04:01:51;;;;;;;43.87;28.80;;;7.10;84.40;;;;;;4985311;28;20051;-82
2020/12/08 04:04:37;;;;;;;42.53;29.37;;;7.10;84.50;;;;;;4977079;28;20038;-82
2020/12/08 04:07:02;;;;;;;47.77;30.57;;;7.00;85.00;;;;;;4997917;28;20049;-82
2020/12/08 04:09:28;;;;;;;43.10;29.43;;;7.10;84.50;;;;;;4995012;28;20063;-83
2020/12/08 04:11:54;;;;;;;39.67;26.90;;;7.00;84.40;;;;;;4997823;28;20066;-84
2020/12/08 04:14:40;;;;;;;40.67;28.17;;;7.00;84.40;;;;;;4975666;28;20049;-83
2020/12/08 04:17:05;;;;;;;40.63;27.47;;;7.10;84.50;;;;;;4994974;28;20059;-84
2020/12/08 04:19:51;;;;;;;38.00;26.20;;;7.00;84.20;;;;;;4969392;28;20096;-83
2020/12/08 04:22:37;;;;;;;42.97;27.03;;;7.00;84.10;;;;;;4981603;28;20054;-84
2020/12/08 04:25:03;;;;;;;38.50;27.67;;;7.00;83.80;;;;;;5011396;28;20133;-83
2020/12/08 04:27:29;;;;;;;37.13;25.70;;;6.90;83.80;;;;;;4994939;28;20402;-83
2020/12/08 04:29:55;;;;;;;39.80;26.23;;;6.90;83.50;;;;;;4981479;28;20044;-83
2020/12/08 04:32:21;;;;;;;41.77;28.20;;;6.90;83.60;;;;;;4971630;28;20082;-83
2020/12/08 04:34:46;;;;;;;38.40;26.87;;;6.80;83.60;;;;;;4982629;28;20042;-83
2020/12/08 04:37:12;;;;;;;39.13;26.67;;;6.80;83.80;;;;;;4980213;28;20035;-83
2020/12/08 04:39:38;;;;;;;38.40;25.80;;;6.80;84.20;;;;;;4982703;28;20725;-84
2020/12/08 04:42:04;;;;;;;33.07;25.10;;;6.70;83.60;;;;;;4989277;28;20034;-83
2020/12/08 04:44:30;;;;;;;36.87;24.23;;;6.70;83.40;;;;;;4940846;28;20507;-83
2020/12/08 04:47:20;;;;;;;36.30;24.50;;;6.70;83.20;;;;;;4971139;28;20113;-83
2020/12/08 04:49:47;;;;;;;35.93;25.87;;;6.60;82.70;;;;;;4988449;28;20116;-81
2020/12/08 04:52:14;;;;;;;43.73;24.83;;;6.60;82.70;;;;;;4995756;28;20177;-81
2020/12/08 04:55:01;;;;;;;39.97;26.93;;;6.60;82.80;;;;;;4979905;28;20038;-81
2020/12/08 04:57:47;;;;;;;34.97;25.07;;;6.50;83.10;;;;;;4974152;28;20042;-83
2020/12/08 05:00:12;;;;;;;36.47;25.97;;;6.50;83.50;;;;;;4988010;28;20037;-84
2020/12/08 05:02:58;;;;;;;39.33;26.43;;;6.50;83.70;;;;;;4956941;28;20387;-82
2020/12/08 05:05:24;;;;;;;40.67;26.77;;;6.50;83.80;;;;;;4989113;28;20049;-84
2020/12/08 05:08:13;;;;;;;40.60;26.17;;;6.50;83.90;;;;;;4975587;28;20516;-84
2020/12/08 05:11:07;;;;;;;38.77;27.10;;;6.50;83.90;;;;;;4961857;28;20053;-83
2020/12/08 05:14:00;;;;;;;36.10;24.55;;;6.50;83.80;;;;;;4971673;28;20058;-84
2020/12/08 05:16:46;;;;;;;35.60;24.53;;;6.50;84.20;;;;;;4961067;28;20409;-84
2020/12/08 05:19:12;;;;;;;33.70;25.17;;;6.50;84.50;;;;;;4985328;28;20045;-84
2020/12/08 05:21:50;;;;;;;34.50;25.83;;;6.50;84.50;;;;;;4968784;28;20064;-84
2020/12/08 05:24:25;;;;;;;38.00;24.43;;;6.50;84.20;;;;;;4991616;28;20109;-84
2020/12/08 05:27:11;;;;;;;35.27;24.77;;;6.60;84.40;;;;;;4980590;28;20042;-84
2020/12/08 05:29:38;;;;;;;34.57;24.30;;;6.50;84.30;;;;;;4982863;28;20042;-84
2020/12/08 05:32:22;;;;;;;32.87;23.87;;;6.60;84.40;;;;;;4968705;28;20121;-84
2020/12/08 05:34:53;;;;;;;33.63;24.40;;;6.60;84.10;;;;;;4986298;28;20038;-84
2020/12/08 05:37:19;;;;;;;38.27;26.63;;;6.60;84.20;;;;;;4968736;28;20038;-84
2020/12/08 05:39:45;;;;;;;35.47;24.73;;;6.60;84.30;;;;;;4989885;28;20044;-84
2020/12/08 05:42:18;;;;;;;33.67;24.63;;;6.60;84.30;;;;;;4968651;28;20761;-83
2020/12/08 05:44:49;;;;;;;37.20;25.83;;;6.60;84.20;;;;;;4982118;28;20536;-83
2020/12/08 05:47:19;;;;;;;35.00;24.77;;;6.70;84.40;;;;;;5011290;28;20034;-83
2020/12/08 05:49:45;;;;;;;36.60;24.80;;;6.70;84.40;;;;;;4947412;28;20061;-83
2020/12/08 05:52:11;;;;;;;34.23;24.33;;;6.70;84.30;;;;;;4983728;28;20046;-84
2020/12/08 05:54:36;;;;;;;38.73;24.93;;;6.70;84.20;;;;;;4964574;28;20482;-83
2020/12/08 05:57:13;;;;;;;35.77;25.47;;;6.70;84.20;;;;;;4982175;28;20464;-83
2020/12/08 05:59:59;;;;;;;35.53;24.40;;;6.70;84.10;;;;;;4978520;28;20066;-84
2020/12/08 06:02:45;;;;;;;35.37;25.10;;;6.90;84.70;;;;;;4971012;28;20043;-83
2020/12/08 06:05:11;;;;;;;56.07;26.40;;;6.70;84.20;;;;;;4982489;28;20049;-84
2020/12/08 06:07:36;;;;;;;34.00;24.13;;;6.70;84.10;;;;;;4985917;28;20045;-83
2020/12/08 06:10:09;;;;;;;34.13;23.63;;;6.80;84.20;;;;;;4986162;28;20045;-83
2020/12/08 06:12:38;;;;;;;25.88;17.30;;;6.70;84.10;;;;;;4974864;28;20038;-83
2020/12/08 06:15:25;;;;;;;33.63;24.07;;;6.80;84.50;;;;;;4990629;28;20046;-83
2020/12/08 06:17:51;;;;;;;38.17;24.67;;;6.70;84.40;;;;;;4971338;28;20112;-83
2020/12/08 06:20:17;;;;;;;32.97;24.33;;;6.80;84.40;;;;;;4980528;28;20494;-83
2020/12/08 06:23:03;;;;;;;31.90;23.37;;;6.80;84.20;;;;;;4976901;28;20046;-83
2020/12/08 06:25:29;;;;;;;33.77;24.03;;;6.80;84.20;;;;;;4983592;28;20074;-84
2020/12/08 06:28:02;;;;;;;39.60;26.43;;;6.80;84.10;;;;;;4985183;28;20410;-83
2020/12/08 06:30:31;;;;;;;32.70;23.77;;;6.80;84.00;;;;;;4981343;28;20041;-83
2020/12/08 06:32:59;;;;;;;36.80;25.10;;;7.00;84.30;;;;;;4983360;28;20125;-84
2020/12/08 06:35:31;;;;;;;36.30;25.17;;;6.80;84.20;;;;;;4953291;28;20034;-84
2020/12/08 06:38:17;;;;;;;35.50;24.03;;;7.00;84.10;;;;;;4964924;28;20038;-84
2020/12/08 06:40:51;;;;;;;39.73;26.47;;;6.80;84.60;;;;;;5007102;28;20117;-84
2020/12/08 06:43:16;;;;;;;39.70;25.75;;;6.80;84.10;;;;;;4961662;28;20058;-83
2020/12/08 06:45:42;;;;;;;37.27;26.80;;;6.80;84.10;;;;;;5001694;28;20365;-83
2020/12/08 06:48:28;;;;;;;35.47;25.27;;;6.80;84.00;;;;;;4985287;28;20039;-83
2020/12/08 06:51:18;;;;;;;38.90;25.77;;;6.80;84.00;;;;;;4974002;28;20042;-83
2020/12/08 06:54:14;;;;;;;38.57;25.63;;;6.80;84.00;;;;;;4971119;28;20046;-83
2020/12/08 06:56:39;;;;;;;68.40;42.70;;;6.80;84.40;;;;;;4972038;28;20037;-83
2020/12/08 06:59:05;;;;;;;39.27;27.83;;;6.80;84.10;;;;;;4996645;28;20046;-83
2020/12/08 07:01:52;;;;;;;34.37;27.03;;;6.80;84.10;;;;;;4959421;28;20458;-83
2020/12/08 07:04:37;;;;;;;37.60;26.70;;;6.80;84.00;;;;;;4975768;28;20057;-83
2020/12/08 07:07:03;;;;;;;37.07;24.73;;;6.80;83.90;;;;;;4991357;28;20047;-82
2020/12/08 07:09:32;;;;;;;33.50;24.37;;;6.80;83.80;;;;;;4981630;28;20046;-83
2020/12/08 07:12:02;;;;;;;37.03;24.97;;;6.80;83.60;;;;;;4993329;28;20038;-82
2020/12/08 07:14:29;;;;;;;32.33;23.97;;;6.70;83.50;;;;;;4982727;28;20048;-82
2020/12/08 07:16:55;;;;;;;34.87;23.27;;;6.70;83.40;;;;;;4993384;28;20034;-83
2020/12/08 07:19:20;;;;;;;37.73;25.73;;;6.70;83.50;;;;;;4972634;28;20074;-84
2020/12/08 07:22:08;;;;;;;36.47;25.93;;;6.70;83.50;;;;;;4969403;28;20038;-84
2020/12/08 07:24:42;;;;;;;44.03;26.10;;;6.70;83.60;;;;;;4988949;28;20038;-83
2020/12/08 07:27:28;;;;;;;34.67;25.13;;;6.70;83.50;;;;;;4975074;28;20052;-84
2020/12/08 07:29:53;;;;;;;35.03;24.47;;;6.70;83.80;;;;;;4972787;28;20093;-82
2020/12/08 07:32:27;;;;;;;35.00;25.47;;;6.70;83.70;;;;;;4986711;28;20729;-82
2020/12/08 07:34:54;;;;;;;36.75;24.77;;;6.70;83.70;;;;;;4973177;28;20065;-83
2020/12/08 07:37:20;;;;;;;36.63;24.50;;;6.70;83.80;;;;;;4981138;28;20496;-83
2020/12/08 07:39:46;;;;;;;37.77;25.10;;;6.70;83.80;;;;;;4988349;28;20042;-83
2020/12/08 07:42:11;;;;;;;33.00;23.37;;;6.70;83.80;;;;;;4967435;28;20038;-82
2020/12/08 07:44:37;;;;;;;35.97;25.13;;;6.70;83.70;;;;;;4983532;28;20038;-83
2020/12/08 07:47:23;;;;;;;36.10;25.07;;;6.70;83.80;;;;;;4984064;28;20041;-82
2020/12/08 07:49:49;;;;;;;39.30;26.27;;;6.70;83.80;;;;;;5000972;28;20045;-82
2020/12/08 07:52:18;;;;;;;36.20;25.73;;;6.70;83.80;;;;;;5000522;28;20033;-81
2020/12/08 07:55:03;;;;;;;36.93;24.73;;;6.70;83.80;;;;;;4999102;28;20133;-84
2020/12/08 07:57:49;;;;;;;36.17;24.00;;;6.70;84.00;;;;;;4987652;28;20042;-82
2020/12/08 08:00:21;;;;;;;36.13;24.80;;;6.80;84.10;;;;;;5024719;28;20102;-83
2020/12/08 08:02:46;;;;;;;37.30;24.63;;;6.80;84.00;;;;;;4991304;28;20076;-82
2020/12/08 08:05:32;;;;;;;35.40;24.77;;;6.80;84.10;;;;;;4993648;28;20046;-84
2020/12/08 08:07:59;;;;;;;40.47;27.07;;;6.80;84.00;;;;;;5010199;28;20033;-83
2020/12/08 08:10:45;;;;;;;38.87;25.70;;;6.80;84.00;;;;;;4996989;28;20037;-83
2020/12/08 08:13:30;;;;;;;37.27;24.83;;;6.80;83.80;;;;;;5006388;28;20046;-83
2020/12/08 08:15:56;;;;;;;36.73;25.57;;;6.80;83.90;;;;;;5015968;28;20047;-83
2020/12/08 08:18:22;;;;;;;37.10;25.77;;;6.80;84.00;;;;;;5003434;28;20062;-83
2020/12/08 08:20:48;;;;;;;37.30;26.47;;;6.90;84.10;;;;;;5021061;28;20033;-84
2020/12/08 08:23:17;;;;;;;42.50;27.13;;;6.90;84.10;;;;;;4981522;28;20458;-85
2020/12/08 08:25:43;;;;;;;37.13;25.90;;;7.00;83.70;;;;;;4979419;28;20046;-84
2020/12/08 08:28:08;;;;;;;40.57;29.57;;;6.90;83.80;;;;;;4994201;28;20049;-84
2020/12/08 08:30:34;;;;;;;35.67;26.27;;;7.00;83.70;;;;;;4983808;28;20054;-85
2020/12/08 08:33:20;;;;;;;43.93;27.50;;;7.00;83.40;;;;;;4998204;28;20084;-84
2020/12/08 08:35:47;;;;;;;35.77;25.90;;;7.00;83.10;;;;;;4975894;28;20109;-84
2020/12/08 08:38:13;;;;;;;33.77;25.50;;;7.00;83.40;;;;;;5002861;28;20034;-86
2020/12/08 08:40:40;;;;;;;44.83;31.60;;;7.00;83.50;;;;;;4992792;28;20046;-84
2020/12/08 08:43:06;;;;;;;65.57;40.50;;;7.00;83.60;;;;;;4995597;28;20042;-85
2020/12/08 08:45:55;;;;;;;38.37;28.43;;;7.10;83.70;;;;;;4984515;28;20037;-83
2020/12/08 08:48:21;;;;;;;41.30;29.70;;;7.10;83.60;;;;;;4985847;28;20033;-85
2020/12/08 08:50:48;;;;;;;33.33;23.73;;;7.10;83.60;;;;;;4964277;28;20060;-84
2020/12/08 08:53:33;;;;;;;32.67;24.10;;;7.20;83.50;;;;;;4976265;28;20041;-84
2020/12/08 08:55:59;;;;;;;35.47;24.50;;;7.20;83.40;;;;;;4980742;28;20115;-84
2020/12/08 08:58:28;;;;;;;33.63;25.43;;;7.20;83.00;;;;;;4995479;28;20038;-85
2020/12/08 09:01:14;;;;;;;28.87;22.63;;;7.30;82.90;;;;;;4964492;28;20038;-86
2020/12/08 09:04:09;;;;;;;34.07;24.53;;;7.10;82.80;;;;;;4985976;28;20040;-86
2020/12/08 09:06:47;;;;;;;34.60;24.33;;;7.10;82.90;;;;;;5008505;28;20038;-88
2020/12/08 09:09:34;;;;;;;30.40;22.97;;;7.40;83.40;;;;;;4999281;28;20092;-86
2020/12/08 09:12:47;;;;;;;33.60;24.30;;;7.20;83.50;;;;;;4977014;28;20124;-86
2020/12/08 09:19:02;;;;;;;32.72;22.83;;;7.20;83.40;;;;;;4997737;28;20053;-85
2020/12/08 09:21:28;;;;;;;30.27;23.07;;;7.20;83.20;;;;;;5001601;28;20042;-84
2020/12/08 09:23:54;;;;;;;33.57;24.67;;;7.20;83.50;;;;;;4969391;28;20040;-85
2020/12/08 09:26:20;;;;;;;37.07;24.00;;;7.30;83.30;;;;;;4983244;28;20052;-88
2020/12/08 09:28:53;;;;;;;;;;;7.30;83.40;;;;;;4993622;28;20034;-84
2020/12/08 09:31:20;;;;;;;32.17;22.20;;;7.30;83.80;;;;;;4995723;28;19918;-85
2020/12/08 09:33:51;;;;;;;29.67;23.13;;;7.30;84.20;;;;;;4999722;28;20061;-85
2020/12/08 09:36:17;;;;;;;33.83;24.20;;;7.40;83.40;;;;;;4982201;28;20042;-82
2020/12/08 09:39:07;;;;;;;33.93;23.80;;;7.40;83.20;;;;;;4980206;28;20099;-85
2020/12/08 09:41:53;;;;;;;38.80;24.27;;;7.40;83.20;;;;;;5001996;28;20435;-85
2020/12/08 09:44:20;;;;;;;30.30;23.20;;;7.40;83.30;;;;;;5003644;28;20061;-84
2020/12/08 09:46:48;;;;;;;32.83;25.43;;;7.40;83.10;;;;;;5022708;28;20100;-85
2020/12/08 09:49:17;;;;;;;31.53;24.07;;;7.50;82.90;;;;;;4982609;28;20474;-84
2020/12/08 09:51:48;;;;;;;32.47;24.13;;;7.50;82.90;;;;;;5002422;28;20042;-84
2020/12/08 09:54:20;;;;;;;33.30;25.13;;;7.50;82.60;;;;;;4995623;28;20045;-85
2020/12/08 09:57:09;;;;;;;32.27;24.97;;;7.50;82.70;;;;;;4983984;28;20042;-86
2020/12/08 10:03:12;;;;;;;32.77;23.57;;;7.60;82.50;;;;;;4992039;28;20062;-85
2020/12/08 10:05:38;;;;;;;32.13;24.33;;;7.60;82.50;;;;;;4972800;28;20113;-85
2020/12/08 10:08:24;;;;;;;32.70;23.07;;;7.60;82.40;;;;;;4979527;28;20038;-85
2020/12/08 10:10:56;;;;;;;30.93;23.07;;;7.60;82.50;;;;;;4987655;28;20124;-84
2020/12/08 10:13:22;;;;;;;31.20;23.07;;;8.30;82.80;;;;;;4988565;28;20069;-83
2020/12/08 10:15:48;;;;;;;33.67;23.17;;;8.30;82.70;;;;;;5004272;28;20379;-85
2020/12/08 10:18:13;;;;;;;31.77;23.63;;;7.70;82.40;;;;;;4978764;28;20046;-82
2020/12/08 10:20:39;;;;;;;30.47;23.40;;;7.80;82.40;;;;;;4990859;28;20038;-84
2020/12/08 10:23:26;;;;;;;30.97;23.80;;;7.90;82.00;;;;;;4992812;28;20554;-85
2020/12/08 10:25:52;;;;;;;30.00;23.90;;;7.90;82.20;;;;;;4976649;28;20420;-84
2020/12/08 10:28:18;;;;;;;31.50;23.87;;;8.30;82.10;;;;;;5022714;28;20057;-83
2020/12/08 10:30:43;;;;;;;31.63;24.63;;;7.90;81.90;;;;;;4991949;28;20042;-84
2020/12/08 10:33:09;;;;;;;30.90;23.33;;;8.00;82.00;;;;;;4996913;28;20554;-82
2020/12/08 10:35:38;;;;;;;31.00;23.27;;;8.10;82.10;;;;;;5019756;28;20081;-84
2020/12/08 10:38:04;;;;;;;28.43;22.37;;;8.10;81.40;;;;;;5021019;28;20049;-84
2020/12/08 10:40:51;;;;;;;29.40;22.70;;;8.20;81.40;;;;;;4985976;28;20056;-84
2020/12/08 10:43:20;;;;;;;33.80;23.60;;;8.20;81.30;;;;;;5006064;28;20076;-86
2020/12/08 10:46:05;;;;;;;28.47;21.43;;;8.20;81.30;;;;;;4990051;28;20085;-84
2020/12/08 10:48:32;;;;;;;29.43;22.67;;;8.30;81.30;;;;;;5007272;28;20053;-83
2020/12/08 10:50:57;;;;;;;30.47;21.73;;;8.20;80.80;;;;;;4991878;28;20042;-87
2020/12/08 10:53:43;;;;;;;27.60;21.50;;;8.30;80.80;;;;;;4994770;28;21503;-83
2020/12/08 10:56:19;;;;;;;29.50;21.80;;;8.30;80.80;;;;;;4996112;28;20052;-84
2020/12/08 10:58:46;;;;;;;31.88;23.48;;;8.30;80.60;;;;;;4987956;28;20029;-85
2020/12/08 11:01:32;;;;;;;30.50;22.17;;;8.30;80.50;;;;;;5001772;28;20143;-83
2020/12/08 11:04:00;;;;;;;29.20;22.63;;;8.30;80.40;;;;;;5003780;28;20128;-84
2020/12/08 11:06:27;;;;;;;27.43;20.73;;;8.40;80.50;;;;;;4999581;28;20033;-85
2020/12/08 11:09:13;;;;;;;25.13;19.93;;;8.40;80.60;;;;;;4978319;28;20053;-84
2020/12/08 11:11:39;;;;;;;25.57;20.10;;;8.40;80.30;;;;;;4971440;28;20406;-83
2020/12/08 11:14:05;;;;;;;24.13;18.27;;;8.40;80.20;;;;;;4994640;28;20045;-84
2020/12/08 11:16:30;;;;;;;26.20;19.73;;;8.50;80.30;;;;;;5002612;28;20041;-83
2020/12/08 11:18:57;;;;;;;24.07;19.50;;;8.50;80.10;;;;;;4997902;28;20042;-84
2020/12/08 11:21:27;;;;;;;23.27;19.47;;;8.50;79.80;;;;;;4999089;28;20595;-83
2020/12/08 11:23:54;;;;;;;28.30;20.90;;;8.40;79.10;;;;;;5018278;28;20042;-85
2020/12/08 11:26:43;;;;;;;27.33;20.63;;;8.40;79.50;;;;;;4971035;28;20046;-83
2020/12/08 11:29:29;;;;;;;27.23;21.13;;;8.40;79.60;;;;;;5000218;28;20578;-85
2020/12/08 11:31:56;;;;;;;28.23;21.13;;;8.40;79.40;;;;;;4997505;28;20102;-85
2020/12/08 11:34:21;;;;;;;24.23;18.77;;;8.40;79.20;;;;;;5000187;28;20132;-85
2020/12/08 11:37:08;;;;;;;27.10;19.83;;;8.40;79.50;;;;;;4992734;28;20503;-84
2020/12/08 11:39:35;;;;;;;25.40;19.07;;;8.40;79.30;;;;;;5026602;28;20034;-85
2020/12/08 11:42:02;;;;;;;24.27;19.57;;;8.60;79.20;;;;;;4994090;28;20046;-85
2020/12/08 11:44:28;;;;;;;27.53;20.53;;;8.50;78.90;;;;;;4979042;28;21226;-85
2020/12/08 11:46:55;;;;;;;30.40;21.77;;;8.40;78.50;;;;;;4995911;28;20056;-85
2020/12/08 11:49:20;;;;;;;28.00;20.50;;;8.40;78.80;;;;;;4997263;28;20042;-84
2020/12/08 11:52:12;;;;;;;26.83;21.67;;;8.40;79.20;;;;;;4958993;28;20057;-85
2020/12/08 11:54:40;;;;;;;30.00;22.20;;;8.40;79.40;;;;;;4967728;28;20042;-83
2020/12/08 11:57:06;;;;;;;25.90;19.50;;;8.40;79.00;;;;;;4973282;28;20034;-84
2020/12/08 11:59:37;;;;;;;26.13;20.03;;;8.50;79.10;;;;;;5010784;28;20042;-85
2020/12/08 12:02:28;;;;;;;23.23;17.63;;;8.50;78.50;;;;;;4988080;28;20041;-83
2020/12/08 12:04:57;;;;;;;27.13;19.30;;;8.40;78.90;;;;;;4992777;28;20038;-84
2020/12/08 12:07:49;;;;;;;24.80;18.77;;;8.50;79.20;;;;;;4991868;28;20053;-84
2020/12/08 12:10:18;;;;;;;25.43;18.97;;;8.50;79.40;;;;;;4978412;28;20090;-83
2020/12/08 12:12:46;;;;;;;23.13;18.70;;;8.50;79.30;;;;;;4950479;28;20049;-84
2020/12/08 12:15:16;;;;;;;22.60;18.07;;;8.50;78.40;;;;;;4976660;28;20037;-84
2020/12/08 12:17:42;;;;;;;25.43;19.40;;;8.50;78.60;;;;;;4977816;28;20041;-85
2020/12/08 12:20:09;;;;;;;24.27;18.93;;;8.50;78.60;;;;;;4982370;28;20106;-85
2020/12/08 12:22:36;;;;;;;25.43;19.83;;;8.60;79.00;;;;;;4982766;28;20413;-87
2020/12/08 12:25:09;;;;;;;25.53;20.67;;;8.60;79.60;;;;;;4987584;28;20050;-86
2020/12/08 12:27:35;;;;;;;28.13;20.80;;;8.50;79.00;;;;;;4981150;28;20053;-84
2020/12/08 12:30:25;;;;;;;26.53;20.87;;;8.50;78.10;;;;;;4976342;28;20041;-84
2020/12/08 12:32:51;;;;;;;25.20;20.00;;;8.50;77.70;;;;;;4982521;28;20117;-83
2020/12/08 12:35:37;;;;;;;24.77;19.47;;;8.50;78.10;;;;;;4987196;28;20050;-84
2020/12/08 12:38:03;;;;;;;26.30;21.00;;;8.60;78.50;;;;;;4976571;28;20062;-84
2020/12/08 12:40:29;;;;;;;28.77;20.23;;;8.40;78.50;;;;;;4971804;28;20062;-83
2020/12/08 12:42:56;;;;;;;27.47;20.20;;;8.40;78.50;;;;;;4996196;28;20187;-84
2020/12/08 12:45:28;;;;;;;28.87;21.73;;;8.40;79.00;;;;;;4949964;28;20034;-84
2020/12/08 12:47:55;;;;;;;27.55;19.65;;;8.40;79.20;;;;;;4992466;28;20038;-84
2020/12/08 12:50:21;;;;;;;24.80;19.47;;;8.40;79.00;;;;;;4967803;28;20041;-84
2020/12/08 12:52:47;;;;;;;29.50;19.80;;;8.40;79.10;;;;;;4970915;28;20045;-84
2020/12/08 12:55:12;;;;;;;24.23;19.07;;;8.40;78.50;;;;;;4951534;28;20054;-84
2020/12/08 12:57:38;;;;;;;23.43;18.70;;;8.40;78.80;;;;;;5011883;28;20040;-83
2020/12/08 13:00:04;;;;;;;20.97;17.83;;;8.40;78.90;;;;;;4965620;28;20038;-83
2020/12/08 13:02:30;;;;;;;27.17;18.17;;;8.40;78.70;;;;;;4951374;28;20069;-84
2020/12/08 13:04:56;;;;;;;23.37;17.63;;;8.50;78.80;;;;;;4970175;28;20042;-84
2020/12/08 13:07:22;;;;;;;21.03;16.63;;;8.50;79.00;;;;;;4982236;28;20053;-84
2020/12/08 13:10:07;;;;;;;22.50;18.20;;;8.50;78.90;;;;;;4981706;28;20054;-86
2020/12/08 13:12:34;;;;;;;25.40;19.27;;;8.50;79.10;;;;;;4979420;28;20477;-84
2020/12/08 13:15:20;;;;;;;23.70;19.37;;;8.40;79.10;;;;;;4966530;28;20038;-84